createdAt,value
2022-11-27T00:01:35.611Z,101812.54
2022-11-27T00:04:03.942Z,101814.73
2022-11-27T00:06:33.019Z,101811.52
2022-11-27T00:09:03.721Z,101811.54
2022-11-27T00:11:32.243Z,101810.66
2022-11-27T00:14:00.918Z,101813.29
2022-11-27T00:16:30.090Z,101813.96
2022-11-27T00:18:58.567Z,101807.42
2022-11-27T00:21:29.040Z,101810.11
2022-11-27T00:23:58.879Z,101813.10
2022-11-27T00:26:27.101Z,101810.80
2022-11-27T00:28:55.727Z,101813.36
2022-11-27T00:31:28.735Z,101814.52
2022-11-27T00:33:58.843Z,101808.55
2022-11-27T00:36:28.586Z,101813.31
2022-11-27T00:38:56.368Z,101812.20
2022-11-27T00:41:26.445Z,101807.52
2022-11-27T00:43:55.539Z,101808.84
2022-11-27T00:46:28.832Z,101808.52
2022-11-27T00:49:01.951Z,101807.69
2022-11-27T00:51:30.389Z,101805.06
2022-11-27T00:53:58.666Z,101800.30
2022-11-27T00:56:32.422Z,101799.45
2022-11-27T00:59:00.913Z,101796.20
2022-11-27T01:01:31.680Z,101796.48
2022-11-27T01:04:01.315Z,101794.70
2022-11-27T01:06:30.335Z,101795.80
2022-11-27T01:08:58.763Z,101794.94
2022-11-27T01:11:30.487Z,101797.36
2022-11-27T01:14:01.318Z,101799.34
2022-11-27T01:16:30.973Z,101802.86
2022-11-27T01:19:00.810Z,101798.81
2022-11-27T01:21:32.475Z,101799.31
2022-11-27T01:24:01.886Z,101797.91
2022-11-27T01:26:30.199Z,101798.15
2022-11-27T01:28:59.123Z,101797.05
2022-11-27T01:31:30.218Z,101797.38
2022-11-27T01:34:01.927Z,101802.17
2022-11-27T01:36:30.847Z,101802.87
2022-11-27T01:38:59.676Z,101811.20
2022-11-27T01:41:32.966Z,101816.61
2022-11-27T01:44:23.512Z,101816.17
2022-11-27T01:47:00.409Z,101817.10
2022-11-27T01:49:38.507Z,101816.48
2022-11-27T01:52:13.671Z,101822.67
2022-11-27T01:54:52.222Z,101821.36
2022-11-27T01:57:26.445Z,101823.39
2022-11-27T01:59:57.849Z,101823.50
2022-11-27T02:02:25.913Z,101822.55
2022-11-27T02:04:55.106Z,101824.30
2022-11-27T02:07:22.898Z,101822.13
2022-11-27T02:09:51.225Z,101820.66
2022-11-27T02:12:48.280Z,101820.79
2022-11-27T02:15:47.420Z,101819.15
2022-11-27T02:19:03.182Z,101818.15
2022-11-27T02:21:51.863Z,101812.04
2022-11-27T02:24:49.044Z,101810.36
2022-11-27T02:27:32.066Z,101809.39
2022-11-27T02:30:01.734Z,101811.11
2022-11-27T02:32:42.010Z,101808.80
2022-11-27T02:35:17.657Z,101812.29
2022-11-27T02:37:53.383Z,101814.17
2022-11-27T02:40:38.215Z,101816.09
2022-11-27T02:43:12.171Z,101819.66
2022-11-27T02:45:43.860Z,101822.27
2022-11-27T02:48:15.275Z,101831.27
2022-11-27T02:50:45.859Z,101835.70
2022-11-27T02:53:25.884Z,101840.92
2022-11-27T02:55:53.665Z,101844.22
2022-11-27T02:58:23.542Z,101848.11
2022-11-27T03:00:54.839Z,101845.61
2022-11-27T03:03:26.729Z,101845.66
2022-11-27T03:06:01.058Z,101844.27
2022-11-27T03:08:30.859Z,101846.23
2022-11-27T03:11:02.823Z,101843.66
2022-11-27T03:13:38.101Z,101839.55
2022-11-27T03:16:31.227Z,101844.61
2022-11-27T03:19:03.440Z,101846.23
2022-11-27T03:21:39.150Z,101843.91
2022-11-27T03:27:39.911Z,101843.51
2022-11-27T03:30:11.760Z,101844.64
2022-11-27T03:32:39.866Z,101839.47
2022-11-27T03:35:11.686Z,101841.73
2022-11-27T03:37:39.658Z,101838.67
2022-11-27T03:40:08.694Z,101838.70
2022-11-27T03:43:02.737Z,101835.66
2022-11-27T03:45:45.515Z,101839.17
2022-11-27T03:48:31.388Z,101835.08
2022-11-27T03:50:58.991Z,101831.52
2022-11-27T03:54:10.843Z,101832.33
2022-11-27T03:57:00.856Z,101828.25
2022-11-27T03:59:32.945Z,101831.20
2022-11-27T04:02:00.699Z,101828.55
2022-11-27T04:04:28.539Z,101832.73
2022-11-27T04:06:56.398Z,101831.98
2022-11-27T04:09:25.522Z,101837.52
2022-11-27T04:11:53.291Z,101838.54
2022-11-27T04:14:21.006Z,101837.73
2022-11-27T04:16:48.710Z,101838.55
2022-11-27T04:19:16.393Z,101835.86
2022-11-27T04:21:44.053Z,101835.56
2022-11-27T04:24:11.737Z,101831.08
2022-11-27T04:26:39.440Z,101831.43
2022-11-27T04:29:07.103Z,101833.67
2022-11-27T04:31:34.885Z,101831.39
2022-11-27T04:34:02.682Z,101829.47
2022-11-27T04:36:32.555Z,101826.55
2022-11-27T04:39:03.834Z,101830.09
2022-11-27T04:41:31.548Z,101829.35
2022-11-27T04:43:59.243Z,101830.39
2022-11-27T04:46:26.965Z,101829.99
2022-11-27T04:48:54.742Z,101830.56
2022-11-27T04:51:22.647Z,101830.14
2022-11-27T04:53:51.005Z,101829.17
2022-11-27T04:56:18.703Z,101825.55
2022-11-27T04:58:46.449Z,101823.51
2022-11-27T05:01:14.241Z,101827.54
2022-11-27T05:03:42.062Z,101830.83
2022-11-27T05:06:09.903Z,101827.23
2022-11-27T05:08:37.587Z,101829.70
2022-11-27T05:11:07.836Z,101829.55
2022-11-27T05:13:35.692Z,101834.09
2022-11-27T05:16:04.214Z,101831.88
2022-11-27T05:18:32.233Z,101828.22
2022-11-27T05:21:02.424Z,101826.82
2022-11-27T05:23:30.956Z,101823.39
2022-11-27T05:25:58.787Z,101826.77
2022-11-27T05:28:27.275Z,101828.45
2022-11-27T05:30:55.164Z,101822.34
2022-11-27T05:33:23.131Z,101820.67
2022-11-27T05:35:50.948Z,101817.14
2022-11-27T05:38:18.727Z,101817.20
2022-11-27T05:40:46.417Z,101814.11
2022-11-27T05:43:14.207Z,101816.17
2022-11-27T05:45:41.959Z,101817.89
2022-11-27T05:48:09.854Z,101813.20
2022-11-27T05:50:37.808Z,101816.22
2022-11-27T05:53:05.955Z,101813.16
2022-11-27T05:55:33.641Z,101816.41
2022-11-27T05:58:01.316Z,101813.40
2022-11-27T06:00:29.096Z,101815.46
2022-11-27T06:02:56.881Z,101814.63
2022-11-27T06:05:24.701Z,101818.16
2022-11-27T06:07:52.521Z,101814.75
2022-11-27T06:10:20.632Z,101814.00
2022-11-27T06:12:48.314Z,101809.56
2022-11-27T06:15:16.151Z,101815.70
2022-11-27T06:17:43.823Z,101809.82
2022-11-27T06:20:11.704Z,101806.33
2022-11-27T06:22:39.484Z,101806.96
2022-11-27T06:25:07.549Z,101810.39
2022-11-27T06:27:36.736Z,101808.36
2022-11-27T06:30:06.031Z,101810.33
2022-11-27T06:32:33.774Z,101812.73
2022-11-27T06:35:01.615Z,101817.31
2022-11-27T06:37:30.231Z,101821.19
2022-11-27T06:39:58.037Z,101819.13
2022-11-27T06:42:28.408Z,101815.30
2022-11-27T06:44:56.664Z,101821.56
2022-11-27T06:47:24.583Z,101824.21
2022-11-27T06:49:52.239Z,101822.70
2022-11-27T06:52:20.031Z,101825.50
2022-11-27T06:54:48.111Z,101821.74
2022-11-27T06:57:16.475Z,101818.23
2022-11-27T06:59:44.127Z,101822.36
2022-11-27T07:02:15.090Z,101820.49
2022-11-27T07:04:43.088Z,101819.98
2022-11-27T07:07:11.032Z,101816.77
2022-11-27T07:09:38.871Z,101813.11
2022-11-27T07:12:08.172Z,101813.69
2022-11-27T07:14:35.855Z,101806.67
2022-11-27T07:17:03.640Z,101803.67
2022-11-27T07:19:31.320Z,101799.95
2022-11-27T07:21:59.037Z,101796.60
2022-11-27T07:24:26.780Z,101797.77
2022-11-27T07:26:54.512Z,101800.82
2022-11-27T07:29:22.200Z,101804.06
2022-11-27T07:31:51.496Z,101810.80
2022-11-27T07:34:21.677Z,101808.96
2022-11-27T07:36:49.715Z,101807.08
2022-11-27T07:39:28.741Z,101811.31
2022-11-27T07:42:30.950Z,101810.05
2022-11-27T07:44:55.829Z,101812.50
2022-11-27T07:47:23.528Z,101812.55
2022-11-27T07:49:51.354Z,101811.55
2022-11-27T07:52:19.001Z,101808.68
2022-11-27T07:54:46.662Z,101810.32
2022-11-27T07:57:14.405Z,101812.61
2022-11-27T07:59:47.154Z,101811.91
2022-11-27T08:02:15.471Z,101816.52
2022-11-27T08:04:43.722Z,101809.16
2022-11-27T08:07:11.888Z,101814.44
2022-11-27T08:09:40.038Z,101816.29
2022-11-27T08:12:07.864Z,101817.42
2022-11-27T08:14:35.591Z,101814.46
2022-11-27T08:17:03.393Z,101812.25
2022-11-27T08:19:31.128Z,101815.39
2022-11-27T08:21:58.943Z,101816.46
2022-11-27T08:24:26.582Z,101817.67
2022-11-27T08:26:54.413Z,101817.48
2022-11-27T08:29:22.223Z,101812.80
2022-11-27T08:31:50.040Z,101812.59
2022-11-27T08:34:17.865Z,101815.83
2022-11-27T08:36:45.510Z,101817.46
2022-11-27T08:39:14.298Z,101815.63
2022-11-27T08:41:41.979Z,101818.71
2022-11-27T08:44:09.740Z,101817.84
2022-11-27T08:46:38.842Z,101817.10
2022-11-27T08:49:06.577Z,101812.61
2022-11-27T08:51:34.451Z,101814.92
2022-11-27T08:54:02.268Z,101817.80
2022-11-27T08:56:29.950Z,101816.98
2022-11-27T08:58:57.679Z,101820.27
2022-11-27T09:01:28.951Z,101823.95
2022-11-27T09:03:57.053Z,101828.14
2022-11-27T09:06:30.340Z,101828.46
2022-11-27T09:09:02.871Z,101824.44
2022-11-27T09:11:31.992Z,101824.29
2022-11-27T09:14:01.894Z,101825.65
2022-11-27T09:16:30.686Z,101825.16
2022-11-27T09:18:58.928Z,101825.62
2022-11-27T09:21:28.339Z,101824.81
2022-11-27T09:23:58.443Z,101822.23
2022-11-27T09:26:27.847Z,101822.17
2022-11-27T09:28:57.442Z,101823.45
2022-11-27T09:31:26.427Z,101827.67
2022-11-27T09:33:54.396Z,101827.74
2022-11-27T09:36:24.432Z,101825.52
2022-11-27T09:38:52.694Z,101823.98
2022-11-27T09:41:26.600Z,101824.46
2022-11-27T09:44:02.946Z,101823.83
2022-11-27T09:46:38.774Z,101822.67
2022-11-27T09:49:35.924Z,101817.03
2022-11-27T09:52:14.757Z,101814.94
2022-11-27T09:55:05.725Z,101816.92
2022-11-27T09:57:37.673Z,101815.37
2022-11-27T10:00:13.271Z,101814.83
2022-11-27T10:02:43.152Z,101809.83
2022-11-27T10:05:44.588Z,101808.88
2022-11-27T10:09:02.086Z,101806.90
2022-11-27T10:11:32.100Z,101804.54
2022-11-27T10:14:08.979Z,101791.80
2022-11-27T10:16:54.210Z,101788.35
2022-11-27T10:19:27.777Z,101787.65
2022-11-27T10:22:02.916Z,101792.70
2022-11-27T10:24:39.953Z,101790.37
2022-11-27T10:27:20.468Z,101792.15
2022-11-27T10:29:54.440Z,101790.71
2022-11-27T10:32:54.261Z,101790.70
2022-11-27T10:35:24.848Z,101784.36
2022-11-27T10:38:11.120Z,101783.02
2022-11-27T10:40:45.632Z,101780.05
2022-11-27T10:43:19.770Z,101779.61
2022-11-27T10:46:02.279Z,101769.85
2022-11-27T10:48:30.404Z,101769.98
2022-11-27T10:50:59.570Z,101769.77
2022-11-27T10:53:32.093Z,101768.14
2022-11-27T10:56:12.013Z,101772.05
2022-11-27T10:59:05.552Z,101776.61
2022-11-27T11:01:48.637Z,101774.50
2022-11-27T11:04:37.610Z,101772.58
2022-11-27T11:07:25.517Z,101774.80
2022-11-27T11:09:54.615Z,101772.92
2022-11-27T11:12:23.679Z,101775.16
2022-11-27T11:14:56.872Z,101771.00
2022-11-27T11:17:31.387Z,101769.98
2022-11-27T11:19:59.278Z,101771.37
2022-11-27T11:22:28.324Z,101768.09
2022-11-27T11:24:56.611Z,101766.76
2022-11-27T11:27:30.367Z,101762.67
2022-11-27T11:30:00.647Z,101762.10
2022-11-27T11:32:40.249Z,101761.38
2022-11-27T11:35:30.451Z,101759.77
2022-11-27T11:37:59.282Z,101760.48
2022-11-27T11:40:32.911Z,101758.67
2022-11-27T11:43:10.116Z,101755.09
2022-11-27T11:45:48.729Z,101751.22
2022-11-27T11:48:25.506Z,101749.57
2022-11-27T11:50:59.153Z,101752.13
2022-11-27T11:53:40.455Z,101752.92
2022-11-27T11:56:44.863Z,101755.40
2022-11-27T11:59:31.190Z,101751.79
2022-11-27T12:02:18.564Z,101741.52
2022-11-27T12:05:15.698Z,101740.70
2022-11-27T12:07:52.002Z,101743.23
2022-11-27T12:10:32.629Z,101739.77
2022-11-27T12:13:03.234Z,101738.38
2022-11-27T12:16:01.080Z,101739.25
2022-11-27T12:18:45.521Z,101735.59
2022-11-27T12:21:15.191Z,101732.02
2022-11-27T12:23:51.195Z,101733.13
2022-11-27T12:26:37.239Z,101735.94
2022-11-27T12:29:23.985Z,101735.91
2022-11-27T12:32:17.099Z,101734.73
2022-11-27T12:35:11.482Z,101732.81
2022-11-27T12:37:57.734Z,101735.80
2022-11-27T12:40:37.654Z,101735.84
2022-11-27T12:43:17.202Z,101731.31
2022-11-27T12:46:01.618Z,101728.02
2022-11-27T12:48:39.429Z,101727.33
2022-11-27T12:51:12.309Z,101726.09
2022-11-27T12:53:45.484Z,101733.80
2022-11-27T12:56:20.951Z,101730.66
2022-11-27T12:58:53.233Z,101727.02
2022-11-27T13:01:27.763Z,101722.16
2022-11-27T13:04:10.990Z,101717.73
2022-11-27T13:06:53.218Z,101717.47
2022-11-27T13:09:44.174Z,101711.16
2022-11-27T13:12:20.396Z,101714.02
2022-11-27T13:14:56.681Z,101708.84
2022-11-27T13:17:37.226Z,101710.49
2022-11-27T13:20:14.317Z,101709.86
2022-11-27T13:22:42.586Z,101706.77
2022-11-27T13:25:14.672Z,101710.27
2022-11-27T13:27:47.161Z,101708.39
2022-11-27T13:30:24.943Z,101708.04
2022-11-27T13:32:57.626Z,101705.09
2022-11-27T13:35:39.949Z,101706.75
2022-11-27T13:38:19.482Z,101704.90
2022-11-27T13:40:52.036Z,101708.55
2022-11-27T13:43:29.051Z,101704.79
2022-11-27T13:46:06.120Z,101703.92
2022-11-27T13:48:38.539Z,101704.52
2022-11-27T13:51:09.398Z,101711.65
2022-11-27T13:53:42.320Z,101712.32
2022-11-27T13:56:10.113Z,101715.36
2022-11-27T13:58:40.663Z,101717.54
2022-11-27T14:01:21.027Z,101716.09
2022-11-27T14:03:49.701Z,101708.46
2022-11-27T14:06:22.019Z,101710.11
2022-11-27T14:08:59.370Z,101712.54
2022-11-27T14:11:41.186Z,101707.66
2022-11-27T14:14:19.978Z,101707.92
2022-11-27T14:17:05.022Z,101710.08
2022-11-27T14:19:44.062Z,101705.02
2022-11-27T14:22:17.225Z,101707.11
2022-11-27T14:28:36.263Z,101702.45
2022-11-27T14:31:03.524Z,101699.08
2022-11-27T14:44:38.959Z,101696.27
2022-11-27T14:47:08.372Z,101699.86
2022-11-27T14:49:36.284Z,101697.17
2022-11-27T14:52:12.810Z,101698.33
2022-11-27T14:54:41.849Z,101693.23
2022-11-27T14:57:18.300Z,101695.48
2022-11-27T14:59:46.030Z,101695.16
2022-11-27T15:02:13.773Z,101690.00
2022-11-27T15:04:43.359Z,101690.67
2022-11-27T15:07:17.370Z,101689.22
2022-11-27T15:09:48.839Z,101690.15
2022-11-27T15:12:36.689Z,101691.05
2022-11-27T15:15:08.954Z,101695.15
2022-11-27T15:17:39.526Z,101692.83
2022-11-27T15:20:16.825Z,101693.98
2022-11-27T15:22:53.224Z,101695.66
2022-11-27T15:25:34.733Z,101695.84
2022-11-27T15:28:02.756Z,101693.61
2022-11-27T15:30:30.703Z,101690.91
2022-11-27T15:32:58.579Z,101697.48
2022-11-27T15:35:29.244Z,101697.39
2022-11-27T15:37:58.305Z,101695.45
2022-11-27T15:40:36.902Z,101696.70
2022-11-27T15:43:16.121Z,101699.27
2022-11-27T15:45:44.648Z,101700.04
2022-11-27T15:48:17.939Z,101701.83
2022-11-27T15:50:51.408Z,101700.02
2022-11-27T15:53:19.617Z,101695.58
2022-11-27T15:55:47.489Z,101692.48
2022-11-27T15:58:17.579Z,101692.36
2022-11-27T16:00:45.366Z,101694.52
2022-11-27T16:03:14.437Z,101694.29
2022-11-27T16:05:42.133Z,101688.25
2022-11-27T16:08:12.892Z,101687.56
2022-11-27T16:10:42.142Z,101686.05
2022-11-27T16:13:09.906Z,101685.30
2022-11-27T16:15:37.721Z,101685.55
2022-11-27T16:18:07.150Z,101685.14
2022-11-27T16:20:35.045Z,101685.15
2022-11-27T16:23:02.766Z,101684.52
2022-11-27T16:25:30.526Z,101678.55
2022-11-27T16:28:02.829Z,101678.76
2022-11-27T16:30:31.931Z,101681.08
2022-11-27T16:32:59.882Z,101681.33
2022-11-27T16:35:27.651Z,101680.02
2022-11-27T16:37:56.091Z,101668.75
2022-11-27T16:40:23.830Z,101671.95
2022-11-27T16:42:51.758Z,101673.28
2022-11-27T16:45:19.804Z,101672.39
2022-11-27T16:47:48.533Z,101672.17
2022-11-27T16:50:17.780Z,101670.11
2022-11-27T16:52:48.947Z,101669.19
2022-11-27T16:55:21.696Z,101666.54
2022-11-27T16:57:50.097Z,101666.92
2022-11-27T17:00:18.501Z,101668.58
2022-11-27T17:02:46.367Z,101659.52
2022-11-27T17:05:14.201Z,101657.98
2022-11-27T17:07:42.658Z,101653.26
2022-11-27T17:10:10.770Z,101652.80
2022-11-27T17:12:38.530Z,101654.88
2022-11-27T17:15:06.725Z,101656.42
2022-11-27T17:17:39.859Z,101654.30
2022-11-27T17:20:08.610Z,101652.29
2022-11-27T17:22:36.944Z,101654.35
2022-11-27T17:25:05.403Z,101651.71
2022-11-27T17:27:34.240Z,101645.84
2022-11-27T17:30:03.534Z,101647.03
2022-11-27T17:32:31.957Z,101642.55
2022-11-27T17:34:59.648Z,101644.42
2022-11-27T17:37:27.600Z,101641.73
2022-11-27T17:39:55.359Z,101641.14
2022-11-27T17:42:23.183Z,101635.57
2022-11-27T17:44:51.590Z,101632.77
2022-11-27T17:47:19.315Z,101632.20
2022-11-27T17:49:47.110Z,101634.41
2022-11-27T17:52:14.874Z,101632.48
2022-11-27T17:54:43.310Z,101632.05
2022-11-27T17:57:11.020Z,101634.05
2022-11-27T17:59:40.178Z,101634.02
2022-11-27T18:02:11.245Z,101632.13
2022-11-27T18:04:39.038Z,101633.17
2022-11-27T18:07:06.796Z,101631.45
2022-11-27T18:09:34.464Z,101625.45
2022-11-27T18:12:06.294Z,101623.27
2022-11-27T18:14:34.686Z,101621.17
2022-11-27T18:17:05.018Z,101618.77
2022-11-27T18:19:32.927Z,101619.42
2022-11-27T18:22:00.700Z,101615.88
2022-11-27T18:27:58.145Z,101607.88
2022-11-27T18:30:25.871Z,101606.23
2022-11-27T18:32:53.610Z,101600.29
2022-11-27T18:35:24.015Z,101600.66
2022-11-27T18:37:51.675Z,101603.02
2022-11-27T18:40:19.473Z,101600.86
2022-11-27T18:42:47.176Z,101596.95
2022-11-27T18:45:31.820Z,101594.18
2022-11-27T18:48:00.977Z,101594.00
2022-11-27T18:50:29.967Z,101591.80
2022-11-27T18:52:58.037Z,101595.79
2022-11-27T18:55:25.974Z,101593.72
2022-11-27T18:57:54.670Z,101595.50
2022-11-27T19:00:22.446Z,101597.73
2022-11-27T19:02:50.301Z,101600.27
2022-11-27T19:05:18.096Z,101598.96
2022-11-27T19:07:45.869Z,101600.47
2022-11-27T19:10:13.955Z,101600.20
2022-11-27T19:12:41.738Z,101598.27
2022-11-27T19:15:09.885Z,101597.30
2022-11-27T19:17:39.106Z,101597.20
2022-11-27T19:20:08.244Z,101598.52
2022-11-27T19:22:38.314Z,101603.20
2022-11-27T19:28:39.585Z,101591.75
2022-11-27T19:31:10.286Z,101592.92
2022-11-27T19:33:39.980Z,101589.68
2022-11-27T19:36:11.267Z,101585.31
2022-11-27T19:38:41.215Z,101588.96
2022-11-27T19:41:12.446Z,101588.45
2022-11-27T19:43:40.620Z,101587.70
2022-11-27T19:46:17.942Z,101585.09
2022-11-27T19:48:46.532Z,101585.45
2022-11-27T19:51:15.471Z,101586.98
2022-11-27T19:53:43.783Z,101584.77
2022-11-27T19:56:12.178Z,101582.02
2022-11-27T19:58:41.093Z,101582.93
2022-11-27T20:01:14.245Z,101581.88
2022-11-27T20:03:43.117Z,101586.39
2022-11-27T20:06:14.794Z,101587.06
2022-11-27T20:08:44.109Z,101585.80
2022-11-27T20:11:15.429Z,101579.98
2022-11-27T20:13:43.434Z,101583.79
2022-11-27T20:16:14.589Z,101581.73
2022-11-27T20:18:42.986Z,101581.29
2022-11-27T20:21:14.641Z,101583.05
2022-11-27T20:23:43.770Z,101582.25
2022-11-27T20:26:15.143Z,101584.06
2022-11-27T20:28:43.641Z,101584.14
2022-11-27T20:31:18.255Z,101581.34
2022-11-27T20:33:46.292Z,101584.91
2022-11-27T20:36:17.131Z,101587.83
2022-11-27T20:38:45.450Z,101584.79
2022-11-27T20:41:17.485Z,101586.52
2022-11-27T20:43:45.911Z,101581.20
2022-11-27T20:46:15.594Z,101577.59
2022-11-27T20:48:47.261Z,101581.02
2022-11-27T20:51:18.585Z,101585.96
2022-11-27T20:53:47.773Z,101584.87
2022-11-27T20:56:17.982Z,101581.23
2022-11-27T20:58:47.946Z,101584.02
2022-11-27T21:01:29.642Z,101581.14
2022-11-27T21:04:00.562Z,101581.09
2022-11-27T21:06:31.962Z,101575.14
2022-11-27T21:09:02.215Z,101577.00
2022-11-27T21:11:32.604Z,101577.85
2022-11-27T21:14:03.529Z,101580.35
2022-11-27T21:16:34.548Z,101579.66
2022-11-27T21:19:05.784Z,101583.17
2022-11-27T21:21:34.496Z,101581.70
2022-11-27T21:24:04.696Z,101580.58
2022-11-27T21:26:33.239Z,101576.06
2022-11-27T21:29:01.091Z,101575.05
2022-11-27T21:31:35.949Z,101576.02
2022-11-27T21:34:07.140Z,101577.84
2022-11-27T21:36:36.761Z,101575.42
2022-11-27T21:39:08.196Z,101579.67
2022-11-27T21:41:36.692Z,101577.06
2022-11-27T21:44:05.772Z,101578.15
2022-11-27T21:46:33.875Z,101572.81
2022-11-27T21:49:05.662Z,101574.29
2022-11-27T21:51:33.643Z,101571.61
2022-11-27T21:54:07.488Z,101570.06
2022-11-27T21:56:38.187Z,101570.69
2022-11-27T21:59:08.235Z,101571.06
2022-11-27T22:01:36.346Z,101576.75
2022-11-27T22:04:04.586Z,101570.77
2022-11-27T22:06:38.360Z,101570.68
2022-11-27T22:09:11.893Z,101571.66
2022-11-27T22:11:44.499Z,101565.23
2022-11-27T22:14:14.063Z,101562.98
2022-11-27T22:16:45.211Z,101564.00
2022-11-27T22:19:14.801Z,101560.27
2022-11-27T22:21:44.444Z,101559.46
2022-11-27T22:27:40.482Z,101552.63
2022-11-27T22:30:11.134Z,101549.08
2022-11-27T22:32:39.233Z,101549.40
2022-11-27T22:35:07.516Z,101545.17
2022-11-27T22:37:35.478Z,101539.97
2022-11-27T22:40:03.928Z,101546.14
2022-11-27T22:42:31.856Z,101542.50
2022-11-27T22:44:59.570Z,101542.32
2022-11-27T22:47:27.317Z,101539.73
2022-11-27T22:49:55.068Z,101536.46
2022-11-27T22:52:24.160Z,101539.49
2022-11-27T22:54:51.952Z,101542.26
2022-11-27T22:57:20.292Z,101541.36
2022-11-27T22:59:49.181Z,101537.33
2022-11-27T23:02:16.967Z,101535.95
2022-11-27T23:04:45.279Z,101529.40
2022-11-27T23:07:14.057Z,101531.13
2022-11-27T23:09:42.163Z,101526.92
2022-11-27T23:12:09.911Z,101523.81
2022-11-27T23:14:38.107Z,101526.14
2022-11-27T23:17:05.981Z,101520.98
2022-11-27T23:19:33.704Z,101516.73
2022-11-27T23:22:01.676Z,101519.23
2022-11-27T23:24:29.401Z,101519.90
2022-11-27T23:26:57.159Z,101520.11
2022-11-27T23:29:25.263Z,101519.44
2022-11-27T23:31:53.026Z,101516.91
2022-11-27T23:34:20.766Z,101517.11
2022-11-27T23:36:48.457Z,101516.61
2022-11-27T23:39:17.491Z,101515.36
2022-11-27T23:41:46.265Z,101515.05
2022-11-27T23:44:15.032Z,101516.28
2022-11-27T23:46:42.755Z,101514.23
2022-11-27T23:49:10.433Z,101513.91
2022-11-27T23:51:38.117Z,101513.52
2022-11-27T23:54:09.180Z,101512.80
2022-11-27T23:56:38.231Z,101510.87
2022-11-27T23:59:06.008Z,101507.42
